テヘラン の空港の天気 - METARとTAF

メヘラーバード国際空港(テヘラン) ( OIII / THR ) - イラン テヘラン
飛行場実況気象(Metar)
観測時間07/15 21:00 IRDT (07/15 16:30 UTC)
風向・風速南東 3m/s
視程10km以上
天気現象
少しの雲 雲底高度 1220m
気温37℃
湿度8%
気圧1003hPa
METAROIII 151630Z 13006KT 9999 FEW040 37/M03 Q1003 A2962
過去の天気等 Google飛行場航空写真 Wunderground天気予報

過去48時間のMETAR

飛行場予報(TAF)
発表時間: 7/15 15:40 IRDT (7/15 11:10 UTC)
予報対象時間: 15日16時 IRDT ~ 16日22時 IRDT
風向・風速東南東 5m/s
視程8000m
少しの雲 雲底高度 1370m
16日12時 IRDT ~ 16日19時 IRDT に一時的に
風向・風速南東 9m/s
TAF OIII 151110Z 1512/1618 12005MPS 8000 FEW045
TEMPO 1608/1615 14009MPS